Weather observations for the past three days for
Mineral Wells, Mineral Wells Airport
Imperial (Metric)
Date Time (cdt) Wind (mph) Vis. (mi.) Weather Sky Cond. Temperature (ºF) Relative Humidity Wind Chill (°F) Heat Index (°F) Pressure Precipitation (in)
Air Dwpt 6 hour altimeter (in) sea level (mb) 1 hr 3 hr 6 hr
Max. Min.
01 15:53 SE 12 G 20 10.00 Partly Cloudy FEW080 SCT095 100 63 30% 102 29.93 1011.9
01 14:53 Vrbl 5 G 17 10.00 Fair CLR 99 62.1 30% 100 29.95 1012.6
01 13:53 Calm 0.00 A Few Clouds FEW100 98.1 63 32% 100 29.98 1013.5
01 12:53 Calm 10.00 A Few Clouds FEW065 FEW100 FEW110 96.1 64.9 97 72 36% 99 30.01 1014.5
01 11:53 Calm 10.00 Fair CLR 95 66 39% 98 30.03 1015.2
01 10:53 S 9 10.00 Fair CLR 91.9 66 43% 95 30.04 1015.4
01 09:53 Vrbl 3 10.00 Fair CLR 87.1 66 50% 89 30.04 1015.6
01 08:53 Calm 10.00 Fair CLR 82 66 58% 84 30.04 1015.6
01 07:53 Calm 10.00 Fair CLR 75 64.9 71% 77 30.03 1015.4
01 06:53 SE 5 10.00 Fair CLR 75 63 81 73.9 66% 77 30.01 1014.8
01 05:53 SE 8 10.00 Fair CLR 75 62.1 64% 77 30.01 1014.7
01 04:53 SE 6 10.00 Fair CLR 75 61 62% 77 30.01 1014.4
01 03:53 SE 8 10.00 Fair CLR 77 61 58% 79 30 1014.1
01 02:53 SE 7 10.00 Fair CLR 78.1 61 56% 80 29.99 1014.0
01 01:53 SE 7 10.00 Fair CLR 79 61 54% 80 29.99 1013.8
01 00:53 SE 7 10.00 Fair CLR 79 61 97 79 54% 80 29.98 1013.5
31 23:53 SE 6 10.00 Fair CLR 82 60.1 47% 82 29.96 1013.0
31 22:53 SE 5 10.00 Fair CLR 82.9 60.1 46% 83 29.96 1013.1
31 21:53 SE 6 10.00 Fair CLR 84.9 57.9 40% 84 29.95 1012.7
31 20:53 SE 5 10.00 Fair CLR 88 57 35% 87 29.94 1012.1
31 19:53 SE 6 10.00 Fair CLR 91 57 32% 90 29.92 1011.5
31 18:53 SE 12 10.00 Fair CLR 97 57 102 96.1 26% 96 29.92 1011.5
31 17:53 SE 14 10.00 Fair CLR 98.1 59 27% 98 29.92 1011.5
31 16:53 SE 12 G 22 10.00 A Few Clouds FEW095 100 57 24% 99 29.93 1011.8
31 15:53 SE 14 10.00 A Few Clouds FEW095 99 57 25% 98 29.95 1012.5
31 14:53 SE 16 G 21 10.00 A Few Clouds FEW095 98.1 55.9 24% 97 29.97 1013.1
31 13:53 S 12 G 22 10.00 Partly Cloudy SCT090 99 55 23% 97 29.99 1013.8
31 12:53 SE 10 G 20 10.00 Fair CLR 97 57.9 98.1 73 27% 96 30.02 1014.7
31 11:53 SE 13 G 22 10.00 Fair CLR 93.9 61 33% 94 30.04 1015.5
31 10:53 S 9 10.00 Fair CLR 91 64.9 42% 93 30.04 1015.6
31 09:53 S 7 10.00 Fair CLR 86 66.9 53% 89 30.04 1015.5
31 08:53 SE 3 10.00 Fair CLR 81 68 65% 84 30.03 1015.3
31 07:53 SE 5 10.00 Fair CLR 75.9 66.9 74% 77 30 1014.5
31 06:53 SE 8 10.00 Fair CLR 75 66.9 81 73.9 76% 76 29.98 1013.6
31 05:53 SE 9 10.00 Fair CLR 75 66 74% 76 29.97 1013.1
31 04:53 SE 7 10.00 Fair CLR 75 64.9 71% 77 29.96 1012.9
31 03:53 SE 6 10.00 Fair CLR 75 63 66% 77 29.96 1012.9
31 02:53 SE 9 10.00 Fair CLR 77 61 58% 79 29.96 1012.9
31 01:53 SE 10 10.00 Fair CLR 81 61 51% 82 29.96 1012.6
31 00:53 SE 9 10.00 Fair CLR 80.1 60.1 98.1 80.1 51% 81 29.95 1012.6
30 23:53 SE 8 10.00 Fair CLR 81 59 47% 81 29.95 1012.5
30 22:53 S 6 10.00 Fair CLR 84 57 40% 83 29.95 1012.4
30 21:53 SE 6 10.00 Fair CLR 84.9 55.9 37% 84 29.93 1012.0
30 20:53 SE 7 10.00 Fair CLR 87.1 55.9 35% 86 29.9 1010.9
30 19:53 SE 9 G 21 10.00 Fair CLR 93 55 28% 91 29.89 1010.5
30 18:53 SE 15 10.00 Fair CLR 98.1 54 102.9 98.1 23% 96 29.89 1010.5
30 17:53 SE 15 G 26 10.00 Fair CLR 100 54 21% 98 29.89 1010.4
30 16:53 SE 10 G 26 10.00 A Few Clouds FEW100 102 55 21% 101 29.89 1010.6
30 15:53 S 12 G 24 10.00 A Few Clouds FEW100 100.9 55.9 22% 100 29.91 1011.2
30 14:53 S 13 G 18 10.00 A Few Clouds FEW090 100.9 57 23% 100 29.94 1012.1
30 13:53 S 15 G 25 10.00 Fair CLR 100 59 26% 100 29.96 1012.8
30 12:53 S 14 G 29 10.00 Fair CLR 98.1 61 98.1 72 29% 99 29.99 1013.8
30 11:53 SE 15 G 26 10.00 Fair CLR 97 63 33% 99 30.01 1014.6
30 10:53 S 7 10.00 Fair CLR 93.9 66.9 41% 98 30.02 1014.9
30 09:53 Vrbl 3 10.00 Fair CLR 87.1 66.9 51% 90 30.02 1015.1
30 08:53 S 6 10.00 Fair CLR 82.9 66.9 59% 86 30.02 1015.0
30 07:53 E 3 10.00 Fair CLR 75.9 66 72% 77 30.01 1014.7
30 06:53 SE 6 10.00 Fair CLR 73 64 80.1 72 74% 29.99 1014.0
30 05:53 E 3 10.00 Fair CLR 75 64 69% 77 29.98 1013.4
30 04:53 SE 8 10.00 Fair CLR 75 63 66% 77 29.97 1013.2
30 03:53 SE 8 10.00 Fair CLR 75 62.1 64% 77 29.96 1012.7
30 02:53 SE 9 10.00 Fair CLR 75.9 62.1 62% 78 29.97 1013.1
30 01:53 SE 9 10.00 Fair CLR 78.1 61 56% 80 29.97 1013.3
30 00:53 SE 9 10.00 Fair CLR 80.1 61 98.1 79 52% 81 29.97 1013.2
29 23:53 SE 7 10.00 Fair CLR 82 61 49% 83 29.97 1013.2
29 22:53 SE 7 10.00 Fair CLR 84.9 61 45% 85 29.97 1013.0
29 21:53 SE 6 10.00 Fair CLR 87.1 60.1 40% 87 29.95 1012.7
29 20:53 SE 9 10.00 Fair CLR 90 60.1 37% 90 29.93 1011.9
29 19:53 SE 10 10.00 Fair CLR 93.9 60.1 32% 94 29.92 1011.6
29 18:53 SE 15 10.00 Fair CLR 98.1 59 102.9 98.1 27% 98 29.92 1011.5
29 17:53 SE 13 10.00 Fair CLR 100.9 59 25% 101 29.92 1011.4
29 16:53 SE 12 10.00 Fair CLR 99 59 27% 99 29.93 1011.8
Date Time (cdt) Wind (mph) Vis. (mi.) Weather Sky Cond. Air Dwpt Max. Min. Relative Humidity Wind Chill (°F) Heat Index (°F) altimeter (in) sea level (mb) 1 hr 3 hr 6 hr
6 hour
Temperature (ºF) Pressure Precipitation (in)